sensor_id;sensor_type;location;lat;lon;timestamp;temperature;humidity
56240;DHT22;42154;51.992;5.896;2023-12-20T00:00:58;7.10;99.90
56240;DHT22;42154;51.992;5.896;2023-12-20T00:03:24;7.20;99.90
56240;DHT22;42154;51.992;5.896;2023-12-20T00:05:50;7.10;99.90
56240;DHT22;42154;51.992;5.896;2023-12-20T00:08:16;7.10;99.90
56240;DHT22;42154;51.992;5.896;2023-12-20T00:10:43;7.10;99.90
56240;DHT22;42154;51.992;5.896;2023-12-20T00:13:09;7.10;99.90
56240;DHT22;42154;51.992;5.896;2023-12-20T00:15:35;7.00;99.90
56240;DHT22;42154;51.992;5.896;2023-12-20T00:18:01;7.00;99.90
56240;DHT22;42154;51.992;5.896;2023-12-20T00:20:28;7.00;99.90
56240;DHT22;42154;51.992;5.896;2023-12-20T00:22:57;7.00;99.90
56240;DHT22;42154;51.992;5.896;2023-12-20T00:25:24;7.10;99.90
56240;DHT22;42154;51.992;5.896;2023-12-20T00:27:50;7.10;99.90
56240;DHT22;42154;51.992;5.896;2023-12-20T00:30:16;7.10;99.90
56240;DHT22;42154;51.992;5.896;2023-12-20T00:32:41;7.00;99.90
56240;DHT22;42154;51.992;5.896;2023-12-20T00:35:15;7.00;99.90
56240;DHT22;42154;51.992;5.896;2023-12-20T00:37:41;7.00;99.90
56240;DHT22;42154;51.992;5.896;2023-12-20T00:40:07;6.90;99.90
56240;DHT22;42154;51.992;5.896;2023-12-20T00:42:33;6.90;99.90
56240;DHT22;42154;51.992;5.896;2023-12-20T00:45:00;6.80;99.90
56240;DHT22;42154;51.992;5.896;2023-12-20T00:47:26;6.80;99.90
56240;DHT22;42154;51.992;5.896;2023-12-20T00:49:51;6.80;99.90
56240;DHT22;42154;51.992;5.896;2023-12-20T00:52:17;6.70;99.90
56240;DHT22;42154;51.992;5.896;2023-12-20T00:54:43;6.70;99.90
56240;DHT22;42154;51.992;5.896;2023-12-20T00:57:09;6.70;99.90
56240;DHT22;42154;51.992;5.896;2023-12-20T00:59:35;6.70;99.90
56240;DHT22;42154;51.992;5.896;2023-12-20T01:02:01;6.70;99.90
56240;DHT22;42154;51.992;5.896;2023-12-20T01:04:27;6.60;99.90
56240;DHT22;42154;51.992;5.896;2023-12-20T01:06:53;6.70;99.90
56240;DHT22;42154;51.992;5.896;2023-12-20T01:09:19;6.60;99.90
56240;DHT22;42154;51.992;5.896;2023-12-20T01:11:44;6.60;99.90
56240;DHT22;42154;51.992;5.896;2023-12-20T01:14:12;6.60;99.90
56240;DHT22;42154;51.992;5.896;2023-12-20T01:16:38;6.60;99.90
56240;DHT22;42154;51.992;5.896;2023-12-20T01:19:03;6.50;99.90
56240;DHT22;42154;51.992;5.896;2023-12-20T01:21:29;6.60;99.90
56240;DHT22;42154;51.992;5.896;2023-12-20T01:23:55;6.40;99.90
56240;DHT22;42154;51.992;5.896;2023-12-20T01:26:21;6.50;99.90
56240;DHT22;42154;51.992;5.896;2023-12-20T01:28:47;6.60;99.90
56240;DHT22;42154;51.992;5.896;2023-12-20T01:31:12;6.50;99.90
56240;DHT22;42154;51.992;5.896;2023-12-20T01:33:38;6.50;99.90
56240;DHT22;42154;51.992;5.896;2023-12-20T01:36:05;6.50;99.90
56240;DHT22;42154;51.992;5.896;2023-12-20T01:38:30;6.50;99.90
56240;DHT22;42154;51.992;5.896;2023-12-20T01:40:56;6.50;99.90
56240;DHT22;42154;51.992;5.896;2023-12-20T01:43:22;6.50;99.90
56240;DHT22;42154;51.992;5.896;2023-12-20T01:45:48;6.40;99.90
56240;DHT22;42154;51.992;5.896;2023-12-20T01:48:15;6.40;99.90
56240;DHT22;42154;51.992;5.896;2023-12-20T01:50:41;6.40;99.90
56240;DHT22;42154;51.992;5.896;2023-12-20T01:53:10;6.40;99.90
56240;DHT22;42154;51.992;5.896;2023-12-20T01:55:39;6.40;99.90
56240;DHT22;42154;51.992;5.896;2023-12-20T01:58:07;6.40;99.90
56240;DHT22;42154;51.992;5.896;2023-12-20T02:00:33;6.40;99.90
56240;DHT22;42154;51.992;5.896;2023-12-20T02:03:03;6.40;99.90
56240;DHT22;42154;51.992;5.896;2023-12-20T02:05:30;6.40;99.90
56240;DHT22;42154;51.992;5.896;2023-12-20T02:07:56;6.50;99.90
56240;DHT22;42154;51.992;5.896;2023-12-20T02:10:22;6.60;99.90
56240;DHT22;42154;51.992;5.896;2023-12-20T02:12:48;6.50;99.90
56240;DHT22;42154;51.992;5.896;2023-12-20T02:15:14;6.50;99.90
56240;DHT22;42154;51.992;5.896;2023-12-20T02:17:40;6.60;99.90
56240;DHT22;42154;51.992;5.896;2023-12-20T02:20:06;6.50;99.90
56240;DHT22;42154;51.992;5.896;2023-12-20T02:22:32;6.50;99.90
56240;DHT22;42154;51.992;5.896;2023-12-20T02:24:57;6.50;99.90
56240;DHT22;42154;51.992;5.896;2023-12-20T02:27:24;6.50;99.90
56240;DHT22;42154;51.992;5.896;2023-12-20T02:29:50;6.50;99.90
56240;DHT22;42154;51.992;5.896;2023-12-20T02:32:19;6.50;99.90
56240;DHT22;42154;51.992;5.896;2023-12-20T02:34:47;6.60;99.90
56240;DHT22;42154;51.992;5.896;2023-12-20T02:37:13;6.60;99.90
56240;DHT22;42154;51.992;5.896;2023-12-20T02:39:39;6.60;99.90
56240;DHT22;42154;51.992;5.896;2023-12-20T02:42:05;6.60;99.90
56240;DHT22;42154;51.992;5.896;2023-12-20T02:44:30;6.60;99.90
56240;DHT22;42154;51.992;5.896;2023-12-20T02:46:56;6.60;99.90
56240;DHT22;42154;51.992;5.896;2023-12-20T02:49:22;6.60;99.90
56240;DHT22;42154;51.992;5.896;2023-12-20T02:51:47;6.60;99.90
56240;DHT22;42154;51.992;5.896;2023-12-20T02:54:13;6.70;99.90
56240;DHT22;42154;51.992;5.896;2023-12-20T02:56:39;6.60;99.90
56240;DHT22;42154;51.992;5.896;2023-12-20T02:59:05;6.70;99.90
56240;DHT22;42154;51.992;5.896;2023-12-20T03:01:31;6.70;99.90
56240;DHT22;42154;51.992;5.896;2023-12-20T03:03:57;6.70;99.90
56240;DHT22;42154;51.992;5.896;2023-12-20T03:06:23;6.70;99.90
56240;DHT22;42154;51.992;5.896;2023-12-20T03:08:49;6.70;99.90
56240;DHT22;42154;51.992;5.896;2023-12-20T03:11:14;6.70;99.90
56240;DHT22;42154;51.992;5.896;2023-12-20T03:13:40;6.80;99.90
56240;DHT22;42154;51.992;5.896;2023-12-20T03:16:09;6.70;99.90
56240;DHT22;42154;51.992;5.896;2023-12-20T03:18:35;6.70;99.90
56240;DHT22;42154;51.992;5.896;2023-12-20T03:21:01;6.70;99.90
56240;DHT22;42154;51.992;5.896;2023-12-20T03:23:27;6.60;99.90
56240;DHT22;42154;51.992;5.896;2023-12-20T03:25:53;6.60;99.90
56240;DHT22;42154;51.992;5.896;2023-12-20T03:28:19;6.60;99.90
56240;DHT22;42154;51.992;5.896;2023-12-20T03:30:45;6.60;99.90
56240;DHT22;42154;51.992;5.896;2023-12-20T03:33:11;6.60;99.90
56240;DHT22;42154;51.992;5.896;2023-12-20T03:35:36;6.60;99.90
56240;DHT22;42154;51.992;5.896;2023-12-20T03:38:02;6.60;99.90
56240;DHT22;42154;51.992;5.896;2023-12-20T03:40:28;6.50;99.90
56240;DHT22;42154;51.992;5.896;2023-12-20T03:42:54;6.50;99.90
56240;DHT22;42154;51.992;5.896;2023-12-20T03:45:20;6.60;99.90
56240;DHT22;42154;51.992;5.896;2023-12-20T03:47:45;6.50;99.90
56240;DHT22;42154;51.992;5.896;2023-12-20T03:50:11;6.50;99.90
56240;DHT22;42154;51.992;5.896;2023-12-20T03:52:37;6.50;99.90
56240;DHT22;42154;51.992;5.896;2023-12-20T03:55:03;6.50;99.90
56240;DHT22;42154;51.992;5.896;2023-12-20T03:57:28;6.50;99.90
56240;DHT22;42154;51.992;5.896;2023-12-20T03:59:54;6.40;99.90
56240;DHT22;42154;51.992;5.896;2023-12-20T04:02:20;6.40;99.90
56240;DHT22;42154;51.992;5.896;2023-12-20T04:04:46;6.50;99.90
56240;DHT22;42154;51.992;5.896;2023-12-20T04:07:12;6.60;99.90
56240;DHT22;42154;51.992;5.896;2023-12-20T04:09:37;6.50;99.90
56240;DHT22;42154;51.992;5.896;2023-12-20T04:12:03;6.50;99.90
56240;DHT22;42154;51.992;5.896;2023-12-20T04:14:30;6.50;99.90
56240;DHT22;42154;51.992;5.896;2023-12-20T04:16:56;6.60;99.90
56240;DHT22;42154;51.992;5.896;2023-12-20T04:19:21;6.60;99.90
56240;DHT22;42154;51.992;5.896;2023-12-20T04:21:47;6.60;99.90
56240;DHT22;42154;51.992;5.896;2023-12-20T04:24:13;6.60;99.90
56240;DHT22;42154;51.992;5.896;2023-12-20T04:26:39;6.70;99.90
56240;DHT22;42154;51.992;5.896;2023-12-20T04:29:04;6.70;99.90
56240;DHT22;42154;51.992;5.896;2023-12-20T04:31:30;6.70;99.90
56240;DHT22;42154;51.992;5.896;2023-12-20T04:33:56;6.70;99.90
56240;DHT22;42154;51.992;5.896;2023-12-20T04:36:22;6.70;99.90
56240;DHT22;42154;51.992;5.896;2023-12-20T04:38:47;6.70;99.90
56240;DHT22;42154;51.992;5.896;2023-12-20T04:41:13;6.90;99.90
56240;DHT22;42154;51.992;5.896;2023-12-20T04:43:41;6.80;99.90
56240;DHT22;42154;51.992;5.896;2023-12-20T04:46:07;6.90;99.90
56240;DHT22;42154;51.992;5.896;2023-12-20T04:48:33;6.80;99.90
56240;DHT22;42154;51.992;5.896;2023-12-20T04:50:58;6.90;99.90
56240;DHT22;42154;51.992;5.896;2023-12-20T04:53:24;6.90;99.90
56240;DHT22;42154;51.992;5.896;2023-12-20T04:55:50;6.90;99.90
56240;DHT22;42154;51.992;5.896;2023-12-20T04:58:15;6.90;99.90
56240;DHT22;42154;51.992;5.896;2023-12-20T05:00:41;7.00;99.90
56240;DHT22;42154;51.992;5.896;2023-12-20T05:03:07;7.00;99.90
56240;DHT22;42154;51.992;5.896;2023-12-20T05:05:33;7.10;99.90
56240;DHT22;42154;51.992;5.896;2023-12-20T05:07:59;7.00;99.90
56240;DHT22;42154;51.992;5.896;2023-12-20T05:10:24;7.10;99.90
56240;DHT22;42154;51.992;5.896;2023-12-20T05:12:51;7.10;99.90
56240;DHT22;42154;51.992;5.896;2023-12-20T05:15:17;7.10;99.90
56240;DHT22;42154;51.992;5.896;2023-12-20T05:17:43;7.10;99.90
56240;DHT22;42154;51.992;5.896;2023-12-20T05:20:08;7.10;99.90
56240;DHT22;42154;51.992;5.896;2023-12-20T05:22:34;7.10;99.90
56240;DHT22;42154;51.992;5.896;2023-12-20T05:25:00;7.10;99.90
56240;DHT22;42154;51.992;5.896;2023-12-20T05:27:26;7.20;99.90
56240;DHT22;42154;51.992;5.896;2023-12-20T05:29:51;7.20;99.90
56240;DHT22;42154;51.992;5.896;2023-12-20T05:32:17;7.20;99.90
56240;DHT22;42154;51.992;5.896;2023-12-20T05:34:43;7.20;99.90
56240;DHT22;42154;51.992;5.896;2023-12-20T05:37:08;7.30;99.90
56240;DHT22;42154;51.992;5.896;2023-12-20T05:39:34;7.40;99.90
56240;DHT22;42154;51.992;5.896;2023-12-20T05:42:00;7.30;99.90
56240;DHT22;42154;51.992;5.896;2023-12-20T05:44:25;7.30;99.90
56240;DHT22;42154;51.992;5.896;2023-12-20T05:46:51;7.40;99.90
56240;DHT22;42154;51.992;5.896;2023-12-20T05:49:17;7.40;99.90
56240;DHT22;42154;51.992;5.896;2023-12-20T05:51:42;7.40;99.90
56240;DHT22;42154;51.992;5.896;2023-12-20T05:54:09;7.40;99.90
56240;DHT22;42154;51.992;5.896;2023-12-20T05:56:35;7.40;99.90
56240;DHT22;42154;51.992;5.896;2023-12-20T05:59:00;7.40;99.90
56240;DHT22;42154;51.992;5.896;2023-12-20T06:01:26;7.40;99.90
56240;DHT22;42154;51.992;5.896;2023-12-20T06:03:52;7.50;99.90
56240;DHT22;42154;51.992;5.896;2023-12-20T06:06:18;7.50;99.90
56240;DHT22;42154;51.992;5.896;2023-12-20T06:08:43;7.50;99.90
56240;DHT22;42154;51.992;5.896;2023-12-20T06:11:09;7.50;99.90
56240;DHT22;42154;51.992;5.896;2023-12-20T06:13:35;7.50;99.90
56240;DHT22;42154;51.992;5.896;2023-12-20T06:16:05;7.40;99.90
56240;DHT22;42154;51.992;5.896;2023-12-20T06:18:30;7.50;99.90
56240;DHT22;42154;51.992;5.896;2023-12-20T06:20:56;7.50;99.90
56240;DHT22;42154;51.992;5.896;2023-12-20T06:23:22;7.50;99.90
56240;DHT22;42154;51.992;5.896;2023-12-20T06:25:47;7.60;99.90
56240;DHT22;42154;51.992;5.896;2023-12-20T06:28:13;7.50;99.90
56240;DHT22;42154;51.992;5.896;2023-12-20T06:30:40;7.50;99.90
56240;DHT22;42154;51.992;5.896;2023-12-20T06:33:06;7.50;99.90
56240;DHT22;42154;51.992;5.896;2023-12-20T06:35:32;7.50;99.90
56240;DHT22;42154;51.992;5.896;2023-12-20T06:37:58;7.50;99.90
56240;DHT22;42154;51.992;5.896;2023-12-20T06:40:24;7.60;99.90
56240;DHT22;42154;51.992;5.896;2023-12-20T06:42:49;7.50;99.90
56240;DHT22;42154;51.992;5.896;2023-12-20T06:45:15;7.50;99.90
56240;DHT22;42154;51.992;5.896;2023-12-20T06:47:41;7.60;99.90
56240;DHT22;42154;51.992;5.896;2023-12-20T06:50:07;7.70;99.90
56240;DHT22;42154;51.992;5.896;2023-12-20T06:52:34;7.70;99.90
56240;DHT22;42154;51.992;5.896;2023-12-20T06:55:01;7.70;99.90
56240;DHT22;42154;51.992;5.896;2023-12-20T06:57:26;7.70;99.90
56240;DHT22;42154;51.992;5.896;2023-12-20T06:59:53;7.70;99.90
56240;DHT22;42154;51.992;5.896;2023-12-20T07:02:19;7.70;99.90
56240;DHT22;42154;51.992;5.896;2023-12-20T07:04:44;7.70;99.90
56240;DHT22;42154;51.992;5.896;2023-12-20T07:07:10;7.70;99.90
56240;DHT22;42154;51.992;5.896;2023-12-20T07:09:36;7.70;99.90
56240;DHT22;42154;51.992;5.896;2023-12-20T07:12:02;7.70;99.90
56240;DHT22;42154;51.992;5.896;2023-12-20T07:14:28;7.70;99.90
56240;DHT22;42154;51.992;5.896;2023-12-20T07:16:54;7.70;99.90
56240;DHT22;42154;51.992;5.896;2023-12-20T07:19:20;7.70;99.90
56240;DHT22;42154;51.992;5.896;2023-12-20T07:21:46;7.70;99.90
56240;DHT22;42154;51.992;5.896;2023-12-20T07:24:11;7.70;99.90
56240;DHT22;42154;51.992;5.896;2023-12-20T07:26:37;7.70;99.90
56240;DHT22;42154;51.992;5.896;2023-12-20T07:29:04;7.70;99.90
56240;DHT22;42154;51.992;5.896;2023-12-20T07:31:30;7.60;99.90
56240;DHT22;42154;51.992;5.896;2023-12-20T07:33:56;7.60;99.90
56240;DHT22;42154;51.992;5.896;2023-12-20T07:36:22;7.70;99.90
56240;DHT22;42154;51.992;5.896;2023-12-20T07:38:47;7.70;99.90
56240;DHT22;42154;51.992;5.896;2023-12-20T07:41:13;7.70;99.90
56240;DHT22;42154;51.992;5.896;2023-12-20T07:43:41;7.70;99.90
56240;DHT22;42154;51.992;5.896;2023-12-20T07:46:08;7.70;99.90
56240;DHT22;42154;51.992;5.896;2023-12-20T07:48:35;7.70;99.90
56240;DHT22;42154;51.992;5.896;2023-12-20T07:51:01;7.70;99.90
56240;DHT22;42154;51.992;5.896;2023-12-20T07:53:27;7.70;99.90
56240;DHT22;42154;51.992;5.896;2023-12-20T07:55:53;7.70;99.90
56240;DHT22;42154;51.992;5.896;2023-12-20T07:58:19;7.70;99.90
56240;DHT22;42154;51.992;5.896;2023-12-20T08:00:45;7.70;99.90
56240;DHT22;42154;51.992;5.896;2023-12-20T08:03:10;7.80;99.90
56240;DHT22;42154;51.992;5.896;2023-12-20T08:05:37;7.80;99.90
56240;DHT22;42154;51.992;5.896;2023-12-20T08:08:05;7.80;99.90
56240;DHT22;42154;51.992;5.896;2023-12-20T08:10:31;7.80;99.90
56240;DHT22;42154;51.992;5.896;2023-12-20T08:12:56;7.80;99.90
56240;DHT22;42154;51.992;5.896;2023-12-20T08:15:22;7.90;99.90
56240;DHT22;42154;51.992;5.896;2023-12-20T08:17:49;7.80;99.90
56240;DHT22;42154;51.992;5.896;2023-12-20T08:20:17;7.90;99.90
56240;DHT22;42154;51.992;5.896;2023-12-20T08:22:42;7.90;99.90
56240;DHT22;42154;51.992;5.896;2023-12-20T08:25:08;8.00;99.90
56240;DHT22;42154;51.992;5.896;2023-12-20T08:27:39;7.90;99.90
56240;DHT22;42154;51.992;5.896;2023-12-20T08:30:05;8.10;99.90
56240;DHT22;42154;51.992;5.896;2023-12-20T08:32:31;7.90;99.90
56240;DHT22;42154;51.992;5.896;2023-12-20T08:34:57;8.00;99.90
56240;DHT22;42154;51.992;5.896;2023-12-20T08:37:24;7.90;99.90
56240;DHT22;42154;51.992;5.896;2023-12-20T08:39:50;8.00;99.90
56240;DHT22;42154;51.992;5.896;2023-12-20T08:42:16;8.00;99.90
56240;DHT22;42154;51.992;5.896;2023-12-20T08:44:42;8.00;99.90
56240;DHT22;42154;51.992;5.896;2023-12-20T08:47:07;8.00;99.90
56240;DHT22;42154;51.992;5.896;2023-12-20T08:49:33;8.00;99.90
56240;DHT22;42154;51.992;5.896;2023-12-20T08:51:59;8.00;99.90
56240;DHT22;42154;51.992;5.896;2023-12-20T08:54:25;8.00;99.90
56240;DHT22;42154;51.992;5.896;2023-12-20T08:56:50;8.00;99.90
56240;DHT22;42154;51.992;5.896;2023-12-20T08:59:16;8.10;99.90
56240;DHT22;42154;51.992;5.896;2023-12-20T09:01:44;8.10;99.90
56240;DHT22;42154;51.992;5.896;2023-12-20T09:04:09;8.10;99.90
56240;DHT22;42154;51.992;5.896;2023-12-20T09:06:35;8.10;99.90
56240;DHT22;42154;51.992;5.896;2023-12-20T09:09:01;8.10;99.90
56240;DHT22;42154;51.992;5.896;2023-12-20T09:11:27;8.00;99.90
56240;DHT22;42154;51.992;5.896;2023-12-20T09:13:52;8.10;99.90
56240;DHT22;42154;51.992;5.896;2023-12-20T09:16:18;8.10;99.90
56240;DHT22;42154;51.992;5.896;2023-12-20T09:18:44;8.20;99.90
56240;DHT22;42154;51.992;5.896;2023-12-20T09:21:09;8.10;99.90
56240;DHT22;42154;51.992;5.896;2023-12-20T09:23:35;8.10;99.90
56240;DHT22;42154;51.992;5.896;2023-12-20T09:26:02;8.10;99.90
56240;DHT22;42154;51.992;5.896;2023-12-20T09:28:28;8.10;99.90
56240;DHT22;42154;51.992;5.896;2023-12-20T09:30:54;8.10;99.90
56240;DHT22;42154;51.992;5.896;2023-12-20T09:33:19;8.10;99.90
56240;DHT22;42154;51.992;5.896;2023-12-20T09:35:45;8.10;99.90
56240;DHT22;42154;51.992;5.896;2023-12-20T09:38:11;8.10;99.90
56240;DHT22;42154;51.992;5.896;2023-12-20T09:40:41;8.10;99.90
56240;DHT22;42154;51.992;5.896;2023-12-20T09:43:25;8.10;99.90
56240;DHT22;42154;51.992;5.896;2023-12-20T09:45:53;8.10;99.90
56240;DHT22;42154;51.992;5.896;2023-12-20T09:48:19;8.10;99.90
56240;DHT22;42154;51.992;5.896;2023-12-20T09:50:46;8.00;99.90
56240;DHT22;42154;51.992;5.896;2023-12-20T09:53:15;8.10;99.90
56240;DHT22;42154;51.992;5.896;2023-12-20T09:55:42;8.00;99.90
56240;DHT22;42154;51.992;5.896;2023-12-20T09:58:08;8.10;99.90
56240;DHT22;42154;51.992;5.896;2023-12-20T10:00:36;8.00;99.90
56240;DHT22;42154;51.992;5.896;2023-12-20T10:03:03;8.10;99.90
56240;DHT22;42154;51.992;5.896;2023-12-20T10:05:32;8.10;99.90
56240;DHT22;42154;51.992;5.896;2023-12-20T10:07:59;8.10;99.90
56240;DHT22;42154;51.992;5.896;2023-12-20T10:10:25;8.20;99.90
56240;DHT22;42154;51.992;5.896;2023-12-20T10:15:27;8.10;99.90
56240;DHT22;42154;51.992;5.896;2023-12-20T10:17:53;8.20;99.90
56240;DHT22;42154;51.992;5.896;2023-12-20T10:20:20;8.20;99.90
56240;DHT22;42154;51.992;5.896;2023-12-20T10:22:46;8.20;99.90
56240;DHT22;42154;51.992;5.896;2023-12-20T10:25:13;8.20;99.90
56240;DHT22;42154;51.992;5.896;2023-12-20T10:27:38;8.20;99.90
56240;DHT22;42154;51.992;5.896;2023-12-20T10:30:05;8.30;99.90
56240;DHT22;42154;51.992;5.896;2023-12-20T10:32:31;8.30;99.90
56240;DHT22;42154;51.992;5.896;2023-12-20T10:34:57;8.40;99.90
56240;DHT22;42154;51.992;5.896;2023-12-20T10:37:22;8.40;99.90
56240;DHT22;42154;51.992;5.896;2023-12-20T10:39:53;8.40;99.90
56240;DHT22;42154;51.992;5.896;2023-12-20T10:42:22;8.40;99.90
56240;DHT22;42154;51.992;5.896;2023-12-20T10:44:50;8.50;99.90
56240;DHT22;42154;51.992;5.896;2023-12-20T10:47:17;8.50;99.90
56240;DHT22;42154;51.992;5.896;2023-12-20T10:49:43;8.50;99.90
56240;DHT22;42154;51.992;5.896;2023-12-20T10:52:11;8.50;99.90
56240;DHT22;42154;51.992;5.896;2023-12-20T10:54:39;8.50;99.90
56240;DHT22;42154;51.992;5.896;2023-12-20T10:57:06;8.50;99.90
56240;DHT22;42154;51.992;5.896;2023-12-20T10:59:36;8.60;99.90
56240;DHT22;42154;51.992;5.896;2023-12-20T11:02:03;8.60;99.90
56240;DHT22;42154;51.992;5.896;2023-12-20T11:04:47;8.60;99.90
56240;DHT22;42154;51.992;5.896;2023-12-20T11:07:22;8.60;99.90
56240;DHT22;42154;51.992;5.896;2023-12-20T11:10:01;8.60;99.90
56240;DHT22;42154;51.992;5.896;2023-12-20T11:15:29;8.70;99.90
56240;DHT22;42154;51.992;5.896;2023-12-20T11:17:56;8.70;99.90
56240;DHT22;42154;51.992;5.896;2023-12-20T11:20:39;8.80;99.90
56240;DHT22;42154;51.992;5.896;2023-12-20T11:23:05;8.80;99.90
56240;DHT22;42154;51.992;5.896;2023-12-20T11:25:55;8.80;99.90
56240;DHT22;42154;51.992;5.896;2023-12-20T11:28:24;8.90;99.90
56240;DHT22;42154;51.992;5.896;2023-12-20T11:30:55;8.90;99.90
56240;DHT22;42154;51.992;5.896;2023-12-20T11:33:25;8.90;99.90
56240;DHT22;42154;51.992;5.896;2023-12-20T11:35:51;8.90;99.90
56240;DHT22;42154;51.992;5.896;2023-12-20T11:38:20;9.00;99.90
56240;DHT22;42154;51.992;5.896;2023-12-20T11:40:48;9.10;99.90
56240;DHT22;42154;51.992;5.896;2023-12-20T11:43:36;9.10;99.90
56240;DHT22;42154;51.992;5.896;2023-12-20T11:46:07;9.20;99.90
56240;DHT22;42154;51.992;5.896;2023-12-20T11:48:39;9.20;99.90
56240;DHT22;42154;51.992;5.896;2023-12-20T11:51:12;9.20;99.90
56240;DHT22;42154;51.992;5.896;2023-12-20T11:53:39;9.20;99.90
56240;DHT22;42154;51.992;5.896;2023-12-20T11:56:09;9.20;99.90
56240;DHT22;42154;51.992;5.896;2023-12-20T11:58:35;9.20;99.90
56240;DHT22;42154;51.992;5.896;2023-12-20T12:01:01;9.20;99.90
56240;DHT22;42154;51.992;5.896;2023-12-20T12:03:30;9.30;99.90
56240;DHT22;42154;51.992;5.896;2023-12-20T12:05:56;9.30;99.90
56240;DHT22;42154;51.992;5.896;2023-12-20T12:08:22;9.20;99.90
56240;DHT22;42154;51.992;5.896;2023-12-20T12:10:48;9.30;99.90
56240;DHT22;42154;51.992;5.896;2023-12-20T12:13:14;9.30;99.90
56240;DHT22;42154;51.992;5.896;2023-12-20T12:15:40;9.30;99.90
56240;DHT22;42154;51.992;5.896;2023-12-20T12:18:08;9.30;99.90
56240;DHT22;42154;51.992;5.896;2023-12-20T12:20:33;9.30;99.90
56240;DHT22;42154;51.992;5.896;2023-12-20T12:23:00;9.30;99.90
56240;DHT22;42154;51.992;5.896;2023-12-20T12:25:26;9.30;99.90
56240;DHT22;42154;51.992;5.896;2023-12-20T12:27:53;9.30;99.90
56240;DHT22;42154;51.992;5.896;2023-12-20T12:30:18;9.40;99.90
56240;DHT22;42154;51.992;5.896;2023-12-20T12:32:45;9.40;99.90
56240;DHT22;42154;51.992;5.896;2023-12-20T12:35:10;9.40;99.90
56240;DHT22;42154;51.992;5.896;2023-12-20T12:37:40;9.40;99.90
56240;DHT22;42154;51.992;5.896;2023-12-20T12:40:14;9.50;99.90
56240;DHT22;42154;51.992;5.896;2023-12-20T12:42:40;9.50;99.90
56240;DHT22;42154;51.992;5.896;2023-12-20T12:45:07;9.50;99.90
56240;DHT22;42154;51.992;5.896;2023-12-20T12:47:34;9.60;99.90
56240;DHT22;42154;51.992;5.896;2023-12-20T12:50:00;9.50;99.90
56240;DHT22;42154;51.992;5.896;2023-12-20T12:52:26;9.50;99.90
56240;DHT22;42154;51.992;5.896;2023-12-20T12:54:52;9.60;99.90
56240;DHT22;42154;51.992;5.896;2023-12-20T12:57:19;9.50;99.90
56240;DHT22;42154;51.992;5.896;2023-12-20T12:59:45;9.50;99.90
56240;DHT22;42154;51.992;5.896;2023-12-20T13:02:12;9.40;99.90
56240;DHT22;42154;51.992;5.896;2023-12-20T13:04:39;9.50;99.90
56240;DHT22;42154;51.992;5.896;2023-12-20T13:07:06;9.50;99.90
56240;DHT22;42154;51.992;5.896;2023-12-20T13:09:32;9.50;99.90
56240;DHT22;42154;51.992;5.896;2023-12-20T13:11:58;9.50;99.90
56240;DHT22;42154;51.992;5.896;2023-12-20T13:14:24;9.50;99.90
56240;DHT22;42154;51.992;5.896;2023-12-20T13:16:50;9.50;99.90
56240;DHT22;42154;51.992;5.896;2023-12-20T13:19:16;9.50;99.90
56240;DHT22;42154;51.992;5.896;2023-12-20T13:21:42;9.50;99.90
56240;DHT22;42154;51.992;5.896;2023-12-20T13:24:07;9.60;99.90
56240;DHT22;42154;51.992;5.896;2023-12-20T13:26:33;9.60;99.90
56240;DHT22;42154;51.992;5.896;2023-12-20T13:28:59;9.60;99.90
56240;DHT22;42154;51.992;5.896;2023-12-20T13:31:25;9.70;99.90
56240;DHT22;42154;51.992;5.896;2023-12-20T13:33:50;9.60;99.90
56240;DHT22;42154;51.992;5.896;2023-12-20T13:36:18;9.60;99.90
56240;DHT22;42154;51.992;5.896;2023-12-20T13:38:44;9.60;99.90
56240;DHT22;42154;51.992;5.896;2023-12-20T13:41:09;9.60;99.90
56240;DHT22;42154;51.992;5.896;2023-12-20T13:43:35;9.60;99.90
56240;DHT22;42154;51.992;5.896;2023-12-20T13:46:01;9.60;99.90
56240;DHT22;42154;51.992;5.896;2023-12-20T13:48:27;9.60;99.90
56240;DHT22;42154;51.992;5.896;2023-12-20T13:50:53;9.60;99.90
56240;DHT22;42154;51.992;5.896;2023-12-20T13:53:20;9.60;99.90
56240;DHT22;42154;51.992;5.896;2023-12-20T13:55:46;9.60;99.90
56240;DHT22;42154;51.992;5.896;2023-12-20T13:58:12;9.60;99.90
56240;DHT22;42154;51.992;5.896;2023-12-20T14:00:37;9.60;99.90
56240;DHT22;42154;51.992;5.896;2023-12-20T14:03:04;9.60;99.90
56240;DHT22;42154;51.992;5.896;2023-12-20T14:05:30;9.60;99.90
56240;DHT22;42154;51.992;5.896;2023-12-20T14:07:56;9.60;99.90
56240;DHT22;42154;51.992;5.896;2023-12-20T14:10:26;9.60;99.90
56240;DHT22;42154;51.992;5.896;2023-12-20T14:12:53;9.60;99.90
56240;DHT22;42154;51.992;5.896;2023-12-20T14:15:19;9.60;99.90
56240;DHT22;42154;51.992;5.896;2023-12-20T14:17:44;9.60;99.90
56240;DHT22;42154;51.992;5.896;2023-12-20T14:20:11;9.60;99.90
56240;DHT22;42154;51.992;5.896;2023-12-20T14:22:39;9.60;99.90
56240;DHT22;42154;51.992;5.896;2023-12-20T14:25:11;9.60;99.90
56240;DHT22;42154;51.992;5.896;2023-12-20T14:27:38;9.60;99.90
56240;DHT22;42154;51.992;5.896;2023-12-20T14:30:05;9.60;99.90
56240;DHT22;42154;51.992;5.896;2023-12-20T14:32:31;9.60;99.90
56240;DHT22;42154;51.992;5.896;2023-12-20T14:34:57;9.60;99.90
56240;DHT22;42154;51.992;5.896;2023-12-20T14:37:23;9.60;99.90
56240;DHT22;42154;51.992;5.896;2023-12-20T14:39:49;9.60;99.90
56240;DHT22;42154;51.992;5.896;2023-12-20T14:42:15;9.60;99.90
56240;DHT22;42154;51.992;5.896;2023-12-20T14:44:41;9.60;99.90
56240;DHT22;42154;51.992;5.896;2023-12-20T14:47:07;9.60;99.90
56240;DHT22;42154;51.992;5.896;2023-12-20T14:49:32;9.60;99.90
56240;DHT22;42154;51.992;5.896;2023-12-20T14:51:58;9.70;99.90
56240;DHT22;42154;51.992;5.896;2023-12-20T14:54:25;9.60;99.90
56240;DHT22;42154;51.992;5.896;2023-12-20T14:56:51;9.70;99.90
56240;DHT22;42154;51.992;5.896;2023-12-20T14:59:17;9.60;99.90
56240;DHT22;42154;51.992;5.896;2023-12-20T15:01:43;9.60;99.90
56240;DHT22;42154;51.992;5.896;2023-12-20T15:04:09;9.60;99.90
56240;DHT22;42154;51.992;5.896;2023-12-20T15:06:36;9.60;99.90
56240;DHT22;42154;51.992;5.896;2023-12-20T15:09:02;9.60;99.90
56240;DHT22;42154;51.992;5.896;2023-12-20T15:11:31;9.60;99.90
56240;DHT22;42154;51.992;5.896;2023-12-20T15:13:57;9.50;99.90
56240;DHT22;42154;51.992;5.896;2023-12-20T15:16:25;9.50;99.90
56240;DHT22;42154;51.992;5.896;2023-12-20T15:18:52;9.50;99.90
56240;DHT22;42154;51.992;5.896;2023-12-20T15:21:19;9.50;99.90
56240;DHT22;42154;51.992;5.896;2023-12-20T15:23:45;9.50;99.90
56240;DHT22;42154;51.992;5.896;2023-12-20T15:26:21;9.50;99.90
56240;DHT22;42154;51.992;5.896;2023-12-20T15:28:46;9.50;99.90
56240;DHT22;42154;51.992;5.896;2023-12-20T15:31:12;9.50;99.90
56240;DHT22;42154;51.992;5.896;2023-12-20T15:33:39;9.50;99.90
56240;DHT22;42154;51.992;5.896;2023-12-20T15:36:05;9.50;99.90
56240;DHT22;42154;51.992;5.896;2023-12-20T15:38:31;9.50;99.90
56240;DHT22;42154;51.992;5.896;2023-12-20T15:40:57;9.50;99.90
56240;DHT22;42154;51.992;5.896;2023-12-20T15:43:22;9.50;99.90
56240;DHT22;42154;51.992;5.896;2023-12-20T15:45:48;9.60;99.90